sensor_id;sensor_type;location;lat;lon;timestamp;pressure;altitude;pressure_sealevel;temperature;humidity
6028;BME280;3042;43.194;27.646;2022-09-16T00:01:25;100724.06;;;27.37;100.00
6028;BME280;3042;43.194;27.646;2022-09-16T00:03:53;100710.59;;;27.45;100.00
6028;BME280;3042;43.194;27.646;2022-09-16T00:06:24;100700.84;;;27.45;100.00
6028;BME280;3042;43.194;27.646;2022-09-16T00:08:53;100708.06;;;27.40;100.00
6028;BME280;3042;43.194;27.646;2022-09-16T00:11:22;100709.84;;;27.40;100.00
6028;BME280;3042;43.194;27.646;2022-09-16T00:13:52;100723.59;;;27.21;100.00
6028;BME280;3042;43.194;27.646;2022-09-16T00:16:22;100721.41;;;27.37;100.00
6028;BME280;3042;43.194;27.646;2022-09-16T00:18:52;100725.81;;;27.36;100.00
6028;BME280;3042;43.194;27.646;2022-09-16T00:21:23;100658.03;;;26.89;100.00
6028;BME280;3042;43.194;27.646;2022-09-16T00:23:50;100735.25;;;27.12;100.00
6028;BME280;3042;43.194;27.646;2022-09-16T00:26:18;100734.94;;;26.89;100.00
6028;BME280;3042;43.194;27.646;2022-09-16T00:28:47;100730.16;;;27.03;100.00
6028;BME280;3042;43.194;27.646;2022-09-16T00:31:15;100733.22;;;26.86;100.00
6028;BME280;3042;43.194;27.646;2022-09-16T00:33:43;100728.97;;;26.79;100.00
6028;BME280;3042;43.194;27.646;2022-09-16T00:36:11;100730.38;;;26.94;100.00
6028;BME280;3042;43.194;27.646;2022-09-16T00:38:41;100548.97;;;25.92;100.00
6028;BME280;3042;43.194;27.646;2022-09-16T00:41:12;100726.66;;;27.01;100.00
6028;BME280;3042;43.194;27.646;2022-09-16T00:43:49;100725.91;;;26.96;100.00
6028;BME280;3042;43.194;27.646;2022-09-16T00:46:19;100726.06;;;26.90;100.00
6028;BME280;3042;43.194;27.646;2022-09-16T00:48:47;100732.81;;;26.64;100.00
6028;BME280;3042;43.194;27.646;2022-09-16T00:51:15;100732.78;;;26.67;100.00
6028;BME280;3042;43.194;27.646;2022-09-16T00:53:47;100726.31;;;26.79;100.00
6028;BME280;3042;43.194;27.646;2022-09-16T00:56:18;100731.34;;;26.51;100.00
6028;BME280;3042;43.194;27.646;2022-09-16T00:58:51;100725.50;;;26.76;100.00
6028;BME280;3042;43.194;27.646;2022-09-16T01:01:20;100713.94;;;26.78;100.00
6028;BME280;3042;43.194;27.646;2022-09-16T01:03:51;100703.03;;;26.92;100.00
6028;BME280;3042;43.194;27.646;2022-09-16T01:06:20;100707.44;;;26.93;100.00
6028;BME280;3042;43.194;27.646;2022-09-16T01:08:50;100697.56;;;27.00;100.00
6028;BME280;3042;43.194;27.646;2022-09-16T01:11:18;100684.91;;;26.73;100.00
6028;BME280;3042;43.194;27.646;2022-09-16T01:13:45;100706.50;;;26.94;100.00
6028;BME280;3042;43.194;27.646;2022-09-16T01:16:18;100699.19;;;27.04;100.00
6028;BME280;3042;43.194;27.646;2022-09-16T01:18:55;100698.19;;;27.09;100.00
6028;BME280;3042;43.194;27.646;2022-09-16T01:21:33;100692.81;;;27.12;100.00
6028;BME280;3042;43.194;27.646;2022-09-16T01:24:43;100699.16;;;27.07;100.00
6028;BME280;3042;43.194;27.646;2022-09-16T01:27:31;100695.00;;;26.95;100.00
6028;BME280;3042;43.194;27.646;2022-09-16T01:33:24;100695.13;;;26.90;100.00
6028;BME280;3042;43.194;27.646;2022-09-16T01:36:09;100698.63;;;26.91;100.00
6028;BME280;3042;43.194;27.646;2022-09-16T01:38:52;100708.28;;;26.56;100.00
6028;BME280;3042;43.194;27.646;2022-09-16T01:41:25;100714.16;;;26.28;100.00
6028;BME280;3042;43.194;27.646;2022-09-16T01:43:59;100715.63;;;26.42;100.00
6028;BME280;3042;43.194;27.646;2022-09-16T01:46:34;100709.28;;;26.50;100.00
6028;BME280;3042;43.194;27.646;2022-09-16T01:49:12;100704.78;;;26.54;100.00
6028;BME280;3042;43.194;27.646;2022-09-16T01:51:46;100711.94;;;26.49;100.00
6028;BME280;3042;43.194;27.646;2022-09-16T01:54:20;100714.59;;;26.49;100.00
6028;BME280;3042;43.194;27.646;2022-09-16T01:56:56;100706.56;;;26.52;100.00
6028;BME280;3042;43.194;27.646;2022-09-16T01:59:31;100713.09;;;26.36;100.00
6028;BME280;3042;43.194;27.646;2022-09-16T02:02:02;100729.09;;;26.31;100.00
6028;BME280;3042;43.194;27.646;2022-09-16T02:04:35;100693.28;;;26.13;100.00
6028;BME280;3042;43.194;27.646;2022-09-16T02:07:06;100716.72;;;26.31;100.00
6028;BME280;3042;43.194;27.646;2022-09-16T02:09:39;100708.84;;;26.28;100.00
6028;BME280;3042;43.194;27.646;2022-09-16T02:12:11;100716.78;;;26.28;100.00
6028;BME280;3042;43.194;27.646;2022-09-16T02:14:41;100531.00;;;25.21;100.00
6028;BME280;3042;43.194;27.646;2022-09-16T02:17:10;100716.03;;;26.22;100.00
6028;BME280;3042;43.194;27.646;2022-09-16T02:19:43;100672.22;;;26.07;100.00
6028;BME280;3042;43.194;27.646;2022-09-16T02:22:16;100710.78;;;26.20;100.00
6028;BME280;3042;43.194;27.646;2022-09-16T02:24:45;100710.91;;;26.14;100.00
6028;BME280;3042;43.194;27.646;2022-09-16T02:27:15;100715.38;;;26.12;100.00
6028;BME280;3042;43.194;27.646;2022-09-16T02:29:46;100712.50;;;26.23;100.00
6028;BME280;3042;43.194;27.646;2022-09-16T02:32:15;100717.22;;;26.08;100.00
6028;BME280;3042;43.194;27.646;2022-09-16T02:34:46;100711.66;;;26.21;100.00
6028;BME280;3042;43.194;27.646;2022-09-16T02:37:18;100712.09;;;25.99;100.00
6028;BME280;3042;43.194;27.646;2022-09-16T02:39:48;100714.59;;;26.07;100.00
6028;BME280;3042;43.194;27.646;2022-09-16T02:42:16;100733.56;;;25.82;100.00
6028;BME280;3042;43.194;27.646;2022-09-16T02:44:44;100727.34;;;25.86;100.00
6028;BME280;3042;43.194;27.646;2022-09-16T02:47:15;100724.53;;;25.94;100.00
6028;BME280;3042;43.194;27.646;2022-09-16T02:49:52;100722.81;;;25.93;100.00
6028;BME280;3042;43.194;27.646;2022-09-16T02:52:28;100674.88;;;25.59;100.00
6028;BME280;3042;43.194;27.646;2022-09-16T02:55:03;100633.19;;;25.25;100.00
6028;BME280;3042;43.194;27.646;2022-09-16T02:57:32;100722.69;;;25.49;100.00
6028;BME280;3042;43.194;27.646;2022-09-16T02:59:59;100731.59;;;25.45;100.00
6028;BME280;3042;43.194;27.646;2022-09-16T03:02:26;100724.53;;;25.44;100.00
6028;BME280;3042;43.194;27.646;2022-09-16T03:04:55;100709.59;;;25.42;100.00
6028;BME280;3042;43.194;27.646;2022-09-16T03:07:22;100716.91;;;25.27;100.00
6028;BME280;3042;43.194;27.646;2022-09-16T03:09:50;100728.25;;;25.34;100.00
6028;BME280;3042;43.194;27.646;2022-09-16T03:12:39;100716.34;;;25.60;100.00
6028;BME280;3042;43.194;27.646;2022-09-16T03:15:28;100718.88;;;25.66;100.00
6028;BME280;3042;43.194;27.646;2022-09-16T03:20:59;100720.56;;;25.70;100.00
6028;BME280;3042;43.194;27.646;2022-09-16T03:23:36;100714.63;;;25.57;100.00
6028;BME280;3042;43.194;27.646;2022-09-16T03:26:11;100729.69;;;25.54;100.00
6028;BME280;3042;43.194;27.646;2022-09-16T03:28:44;100728.88;;;25.50;100.00
6028;BME280;3042;43.194;27.646;2022-09-16T03:31:17;100699.88;;;25.42;100.00
6028;BME280;3042;43.194;27.646;2022-09-16T03:33:55;100729.75;;;25.51;100.00
6028;BME280;3042;43.194;27.646;2022-09-16T03:36:31;100721.13;;;25.38;100.00
6028;BME280;3042;43.194;27.646;2022-09-16T03:39:02;100676.00;;;24.94;100.00
6028;BME280;3042;43.194;27.646;2022-09-16T03:41:31;100751.09;;;25.40;100.00
6028;BME280;3042;43.194;27.646;2022-09-16T03:44:00;100752.06;;;25.34;100.00
6028;BME280;3042;43.194;27.646;2022-09-16T03:46:27;100767.41;;;25.11;100.00
6028;BME280;3042;43.194;27.646;2022-09-16T03:48:54;100678.34;;;24.55;100.00
6028;BME280;3042;43.194;27.646;2022-09-16T03:51:22;100750.88;;;24.95;100.00
6028;BME280;3042;43.194;27.646;2022-09-16T03:53:51;100759.16;;;25.31;100.00
6028;BME280;3042;43.194;27.646;2022-09-16T03:56:19;100747.84;;;25.24;100.00
6028;BME280;3042;43.194;27.646;2022-09-16T03:59:03;100762.25;;;25.01;100.00
6028;BME280;3042;43.194;27.646;2022-09-16T04:01:30;100756.81;;;25.11;100.00
6028;BME280;3042;43.194;27.646;2022-09-16T04:03:58;100746.25;;;25.11;100.00
6028;BME280;3042;43.194;27.646;2022-09-16T04:06:25;100730.38;;;25.11;100.00
6028;BME280;3042;43.194;27.646;2022-09-16T04:08:53;100757.19;;;24.86;100.00
6028;BME280;3042;43.194;27.646;2022-09-16T04:11:26;100756.88;;;25.08;100.00
6028;BME280;3042;43.194;27.646;2022-09-16T04:13:54;100758.44;;;25.21;100.00
6028;BME280;3042;43.194;27.646;2022-09-16T04:16:21;100760.78;;;25.41;100.00
6028;BME280;3042;43.194;27.646;2022-09-16T04:18:48;100767.63;;;25.53;100.00
6028;BME280;3042;43.194;27.646;2022-09-16T04:21:16;100764.94;;;25.56;100.00
6028;BME280;3042;43.194;27.646;2022-09-16T04:23:44;100462.75;;;23.88;100.00
6028;BME280;3042;43.194;27.646;2022-09-16T04:26:12;100759.81;;;25.96;100.00
6028;BME280;3042;43.194;27.646;2022-09-16T04:28:40;100750.03;;;26.00;100.00
6028;BME280;3042;43.194;27.646;2022-09-16T04:31:10;100742.44;;;26.26;100.00
6028;BME280;3042;43.194;27.646;2022-09-16T04:33:38;100759.41;;;26.18;100.00
6028;BME280;3042;43.194;27.646;2022-09-16T04:36:08;100754.63;;;26.37;100.00
6028;BME280;3042;43.194;27.646;2022-09-16T04:38:37;100761.66;;;26.38;100.00
6028;BME280;3042;43.194;27.646;2022-09-16T04:41:06;100764.75;;;26.16;100.00
6028;BME280;3042;43.194;27.646;2022-09-16T04:43:35;100768.34;;;26.10;100.00
6028;BME280;3042;43.194;27.646;2022-09-16T04:46:03;100757.56;;;26.21;100.00
6028;BME280;3042;43.194;27.646;2022-09-16T04:48:31;100766.59;;;26.11;100.00
6028;BME280;3042;43.194;27.646;2022-09-16T04:51:03;100655.56;;;26.02;100.00
6028;BME280;3042;43.194;27.646;2022-09-16T04:53:33;100736.06;;;26.37;100.00
6028;BME280;3042;43.194;27.646;2022-09-16T04:56:05;100750.50;;;27.04;100.00
6028;BME280;3042;43.194;27.646;2022-09-16T04:58:32;100725.38;;;27.17;100.00
6028;BME280;3042;43.194;27.646;2022-09-16T05:01:06;100729.09;;;27.81;100.00
6028;BME280;3042;43.194;27.646;2022-09-16T05:03:38;100733.94;;;27.99;100.00
6028;BME280;3042;43.194;27.646;2022-09-16T05:06:08;100733.91;;;28.30;100.00
6028;BME280;3042;43.194;27.646;2022-09-16T05:08:36;100724.66;;;28.44;100.00
6028;BME280;3042;43.194;27.646;2022-09-16T05:11:06;100729.75;;;28.81;100.00
6028;BME280;3042;43.194;27.646;2022-09-16T05:13:34;100716.59;;;28.76;100.00
6028;BME280;3042;43.194;27.646;2022-09-16T05:16:03;100724.75;;;29.27;100.00
6028;BME280;3042;43.194;27.646;2022-09-16T05:18:32;100715.13;;;29.49;100.00
6028;BME280;3042;43.194;27.646;2022-09-16T05:21:00;100718.06;;;29.66;100.00
6028;BME280;3042;43.194;27.646;2022-09-16T05:23:29;100719.84;;;29.67;100.00
6028;BME280;3042;43.194;27.646;2022-09-16T05:26:01;100661.75;;;29.52;100.00
6028;BME280;3042;43.194;27.646;2022-09-16T05:28:29;100711.19;;;29.86;100.00
6028;BME280;3042;43.194;27.646;2022-09-16T05:31:06;100713.22;;;30.28;100.00
6028;BME280;3042;43.194;27.646;2022-09-16T05:33:35;100712.91;;;30.36;100.00
6028;BME280;3042;43.194;27.646;2022-09-16T05:36:04;100705.19;;;30.52;100.00
6028;BME280;3042;43.194;27.646;2022-09-16T05:38:31;100680.59;;;30.43;100.00
6028;BME280;3042;43.194;27.646;2022-09-16T05:40:59;100700.75;;;30.96;100.00
6028;BME280;3042;43.194;27.646;2022-09-16T05:43:26;100692.22;;;31.30;100.00
6028;BME280;3042;43.194;27.646;2022-09-16T05:45:54;100681.44;;;31.54;100.00
6028;BME280;3042;43.194;27.646;2022-09-16T05:48:22;100676.94;;;31.75;100.00
6028;BME280;3042;43.194;27.646;2022-09-16T05:50:52;100596.97;;;31.70;100.00
6028;BME280;3042;43.194;27.646;2022-09-16T05:53:20;100670.13;;;32.26;100.00
6028;BME280;3042;43.194;27.646;2022-09-16T05:55:55;100630.94;;;32.44;100.00
6028;BME280;3042;43.194;27.646;2022-09-16T05:58:23;100682.53;;;32.84;100.00
6028;BME280;3042;43.194;27.646;2022-09-16T06:00:51;100674.22;;;33.08;100.00
6028;BME280;3042;43.194;27.646;2022-09-16T06:03:18;100675.19;;;33.24;100.00
6028;BME280;3042;43.194;27.646;2022-09-16T06:05:45;100648.88;;;33.15;100.00
6028;BME280;3042;43.194;27.646;2022-09-16T06:08:14;100664.28;;;33.62;100.00
6028;BME280;3042;43.194;27.646;2022-09-16T06:10:41;100666.66;;;33.51;100.00
6028;BME280;3042;43.194;27.646;2022-09-16T06:13:08;100615.59;;;33.36;99.89
6028;BME280;3042;43.194;27.646;2022-09-16T06:15:36;100665.50;;;33.90;98.23
6028;BME280;3042;43.194;27.646;2022-09-16T06:18:03;100661.13;;;34.04;94.57
6028;BME280;3042;43.194;27.646;2022-09-16T06:20:30;100654.25;;;34.16;93.17
6028;BME280;3042;43.194;27.646;2022-09-16T06:22:57;100670.53;;;33.96;91.17
6028;BME280;3042;43.194;27.646;2022-09-16T06:25:26;100662.97;;;34.36;90.58
6028;BME280;3042;43.194;27.646;2022-09-16T06:27:53;100655.53;;;34.41;88.54
6028;BME280;3042;43.194;27.646;2022-09-16T06:30:21;100653.84;;;34.86;86.18
6028;BME280;3042;43.194;27.646;2022-09-16T06:32:48;100647.66;;;35.00;85.16
6028;BME280;3042;43.194;27.646;2022-09-16T06:35:15;100642.50;;;35.27;84.87
6028;BME280;3042;43.194;27.646;2022-09-16T06:37:42;100649.22;;;35.34;82.17
6028;BME280;3042;43.194;27.646;2022-09-16T06:40:10;100637.34;;;35.53;81.43
6028;BME280;3042;43.194;27.646;2022-09-16T06:42:38;100614.31;;;35.77;80.79
6028;BME280;3042;43.194;27.646;2022-09-16T06:45:06;100629.44;;;35.49;79.13
6028;BME280;3042;43.194;27.646;2022-09-16T06:47:34;100651.91;;;35.04;76.88
6028;BME280;3042;43.194;27.646;2022-09-16T06:50:02;100651.88;;;35.20;76.32
6028;BME280;3042;43.194;27.646;2022-09-16T06:52:30;100611.03;;;35.29;74.06
6028;BME280;3042;43.194;27.646;2022-09-16T06:54:57;100633.63;;;35.69;74.24
6028;BME280;3042;43.194;27.646;2022-09-16T06:57:24;100573.69;;;35.53;72.46
6028;BME280;3042;43.194;27.646;2022-09-16T06:59:53;100611.91;;;36.43;72.85
6028;BME280;3042;43.194;27.646;2022-09-16T07:02:20;100568.19;;;35.98;72.13
6028;BME280;3042;43.194;27.646;2022-09-16T07:04:48;100529.19;;;35.90;68.17
6028;BME280;3042;43.194;27.646;2022-09-16T07:07:15;100603.41;;;36.49;62.70
6028;BME280;3042;43.194;27.646;2022-09-16T07:09:42;100600.72;;;36.49;60.32
6028;BME280;3042;43.194;27.646;2022-09-16T07:12:10;100587.19;;;36.50;60.74
6028;BME280;3042;43.194;27.646;2022-09-16T07:14:37;100562.91;;;36.78;60.45
6028;BME280;3042;43.194;27.646;2022-09-16T07:17:06;100587.97;;;37.05;57.99
6028;BME280;3042;43.194;27.646;2022-09-16T07:19:33;100596.56;;;36.97;58.83
6028;BME280;3042;43.194;27.646;2022-09-16T07:22:01;100594.78;;;37.24;57.83
6028;BME280;3042;43.194;27.646;2022-09-16T07:24:28;100604.44;;;36.88;57.50
6028;BME280;3042;43.194;27.646;2022-09-16T07:26:55;100595.28;;;37.03;57.25
6028;BME280;3042;43.194;27.646;2022-09-16T07:29:22;100597.78;;;37.06;57.46
6028;BME280;3042;43.194;27.646;2022-09-16T07:31:50;100583.59;;;36.90;57.60
6028;BME280;3042;43.194;27.646;2022-09-16T07:34:19;100546.00;;;36.75;57.26
6028;BME280;3042;43.194;27.646;2022-09-16T07:36:47;100586.38;;;37.28;57.03
6028;BME280;3042;43.194;27.646;2022-09-16T07:39:16;100586.94;;;37.21;56.90
6028;BME280;3042;43.194;27.646;2022-09-16T07:41:45;100586.81;;;37.22;56.92
6028;BME280;3042;43.194;27.646;2022-09-16T07:44:15;100578.94;;;37.45;56.71
6028;BME280;3042;43.194;27.646;2022-09-16T07:46:42;100560.38;;;37.27;56.10
6028;BME280;3042;43.194;27.646;2022-09-16T07:49:11;100567.19;;;37.58;55.95
6028;BME280;3042;43.194;27.646;2022-09-16T07:51:40;100575.75;;;37.89;56.73
6028;BME280;3042;43.194;27.646;2022-09-16T07:54:10;100574.00;;;37.88;55.70
6028;BME280;3042;43.194;27.646;2022-09-16T07:56:39;100569.69;;;37.98;55.62
6028;BME280;3042;43.194;27.646;2022-09-16T07:59:10;100574.31;;;37.96;55.70
6028;BME280;3042;43.194;27.646;2022-09-16T08:01:38;100571.97;;;37.79;55.35
6028;BME280;3042;43.194;27.646;2022-09-16T08:04:05;100565.72;;;37.91;56.40
6028;BME280;3042;43.194;27.646;2022-09-16T08:06:35;100574.41;;;37.95;55.58
6028;BME280;3042;43.194;27.646;2022-09-16T08:09:04;100587.13;;;37.69;57.05
6028;BME280;3042;43.194;27.646;2022-09-16T08:11:32;100576.44;;;37.29;57.56
6028;BME280;3042;43.194;27.646;2022-09-16T08:13:59;100580.88;;;37.55;56.65
6028;BME280;3042;43.194;27.646;2022-09-16T08:16:27;100547.19;;;37.48;54.75
6028;BME280;3042;43.194;27.646;2022-09-16T08:18:56;100566.16;;;37.85;55.26
6028;BME280;3042;43.194;27.646;2022-09-16T08:21:26;100563.38;;;37.74;56.17
6028;BME280;3042;43.194;27.646;2022-09-16T08:23:54;100571.16;;;37.66;56.58
6028;BME280;3042;43.194;27.646;2022-09-16T08:26:24;100549.59;;;37.66;55.35
6028;BME280;3042;43.194;27.646;2022-09-16T08:28:51;100566.81;;;37.76;56.10
6028;BME280;3042;43.194;27.646;2022-09-16T08:31:19;100568.13;;;37.32;54.44
6028;BME280;3042;43.194;27.646;2022-09-16T08:33:46;100573.22;;;37.62;53.76
6028;BME280;3042;43.194;27.646;2022-09-16T08:36:16;100550.81;;;37.86;53.32
6028;BME280;3042;43.194;27.646;2022-09-16T08:38:45;100545.47;;;37.73;53.45
6028;BME280;3042;43.194;27.646;2022-09-16T08:41:38;100540.19;;;37.95;52.80
6028;BME280;3042;43.194;27.646;2022-09-16T08:44:19;100552.31;;;38.27;53.62
6028;BME280;3042;43.194;27.646;2022-09-16T08:46:51;100557.41;;;38.18;53.18
6028;BME280;3042;43.194;27.646;2022-09-16T08:49:28;100527.78;;;38.30;53.05
6028;BME280;3042;43.194;27.646;2022-09-16T08:51:57;100535.66;;;38.09;52.48
6028;BME280;3042;43.194;27.646;2022-09-16T08:54:29;100539.34;;;38.08;52.37
6028;BME280;3042;43.194;27.646;2022-09-16T08:57:00;100524.25;;;38.05;52.87
6028;BME280;3042;43.194;27.646;2022-09-16T08:59:34;100545.38;;;37.98;53.10
6028;BME280;3042;43.194;27.646;2022-09-16T09:02:19;100527.31;;;38.36;52.61
6028;BME280;3042;43.194;27.646;2022-09-16T09:04:47;100525.66;;;38.22;53.52
6028;BME280;3042;43.194;27.646;2022-09-16T09:07:20;100525.94;;;38.30;53.03
6028;BME280;3042;43.194;27.646;2022-09-16T09:09:57;100531.13;;;38.33;52.71
6028;BME280;3042;43.194;27.646;2022-09-16T09:12:33;100532.66;;;38.49;53.73
6028;BME280;3042;43.194;27.646;2022-09-16T09:15:14;100535.69;;;38.44;53.66
6028;BME280;3042;43.194;27.646;2022-09-16T09:17:52;100543.81;;;38.20;53.62
6028;BME280;3042;43.194;27.646;2022-09-16T09:20:29;100551.25;;;38.16;53.77
6028;BME280;3042;43.194;27.646;2022-09-16T09:23:12;100545.53;;;38.21;54.30
6028;BME280;3042;43.194;27.646;2022-09-16T09:25:48;100557.13;;;38.34;54.02
6028;BME280;3042;43.194;27.646;2022-09-16T09:28:40;100373.53;;;37.64;54.47
6028;BME280;3042;43.194;27.646;2022-09-16T09:31:17;100549.44;;;38.17;53.41
6028;BME280;3042;43.194;27.646;2022-09-16T09:33:53;100550.72;;;38.24;54.25
6028;BME280;3042;43.194;27.646;2022-09-16T09:36:41;100539.72;;;38.38;53.34
6028;BME280;3042;43.194;27.646;2022-09-16T09:39:20;100514.94;;;38.44;54.76
6028;BME280;3042;43.194;27.646;2022-09-16T09:41:52;100536.34;;;38.48;54.26
6028;BME280;3042;43.194;27.646;2022-09-16T09:44:38;100511.81;;;38.27;55.42
6028;BME280;3042;43.194;27.646;2022-09-16T09:47:10;100533.75;;;38.46;53.90
6028;BME280;3042;43.194;27.646;2022-09-16T09:49:40;100533.13;;;38.42;54.95
6028;BME280;3042;43.194;27.646;2022-09-16T09:52:15;100474.16;;;37.88;54.84
6028;BME280;3042;43.194;27.646;2022-09-16T09:54:45;100497.63;;;38.12;54.39
6028;BME280;3042;43.194;27.646;2022-09-16T09:57:21;100541.50;;;38.51;53.94
6028;BME280;3042;43.194;27.646;2022-09-16T09:59:58;100504.91;;;38.47;54.13
6028;BME280;3042;43.194;27.646;2022-09-16T10:02:27;100390.16;;;37.82;54.26
6028;BME280;3042;43.194;27.646;2022-09-16T10:04:57;100473.47;;;38.46;53.83
6028;BME280;3042;43.194;27.646;2022-09-16T10:07:27;100517.94;;;38.53;54.83
6028;BME280;3042;43.194;27.646;2022-09-16T10:09:58;100511.59;;;38.65;54.21
6028;BME280;3042;43.194;27.646;2022-09-16T10:12:30;100520.31;;;38.57;55.10
6028;BME280;3042;43.194;27.646;2022-09-16T10:15:01;100521.44;;;38.77;54.00
6028;BME280;3042;43.194;27.646;2022-09-16T10:17:30;100509.38;;;38.59;54.11
6028;BME280;3042;43.194;27.646;2022-09-16T10:20:01;100520.88;;;38.85;54.12
6028;BME280;3042;43.194;27.646;2022-09-16T10:22:33;100515.38;;;38.98;54.26
6028;BME280;3042;43.194;27.646;2022-09-16T10:25:03;100509.13;;;39.09;52.92
6028;BME280;3042;43.194;27.646;2022-09-16T10:27:34;100506.03;;;39.36;52.64
6028;BME280;3042;43.194;27.646;2022-09-16T10:30:12;100501.16;;;39.41;52.23
6028;BME280;3042;43.194;27.646;2022-09-16T10:32:51;100491.06;;;39.43;52.50
6028;BME280;3042;43.194;27.646;2022-09-16T10:35:22;100444.13;;;38.99;52.70
6028;BME280;3042;43.194;27.646;2022-09-16T10:37:53;100503.34;;;39.24;52.51
6028;BME280;3042;43.194;27.646;2022-09-16T10:40:21;100497.22;;;39.34;53.80
6028;BME280;3042;43.194;27.646;2022-09-16T10:42:50;100475.34;;;39.37;53.89
6028;BME280;3042;43.194;27.646;2022-09-16T10:45:27;100475.34;;;39.37;52.25
6028;BME280;3042;43.194;27.646;2022-09-16T10:47:57;100496.72;;;39.51;52.05
6028;BME280;3042;43.194;27.646;2022-09-16T10:50:25;100481.81;;;39.57;50.06
6028;BME280;3042;43.194;27.646;2022-09-16T10:52:53;100448.13;;;39.50;50.37
6028;BME280;3042;43.194;27.646;2022-09-16T10:55:24;100471.50;;;39.28;49.48
6028;BME280;3042;43.194;27.646;2022-09-16T10:57:52;100498.41;;;39.63;49.71
6028;BME280;3042;43.194;27.646;2022-09-16T11:00:23;100496.44;;;39.88;50.23
6028;BME280;3042;43.194;27.646;2022-09-16T11:06:11;100487.78;;;39.94;49.59
6028;BME280;3042;43.194;27.646;2022-09-16T11:08:51;100476.91;;;40.05;49.77
6028;BME280;3042;43.194;27.646;2022-09-16T11:11:38;100483.47;;;39.80;51.47
6028;BME280;3042;43.194;27.646;2022-09-16T11:14:19;100457.06;;;39.84;49.78
6028;BME280;3042;43.194;27.646;2022-09-16T11:17:08;100474.03;;;39.86;48.64
6028;BME280;3042;43.194;27.646;2022-09-16T11:19:51;100455.81;;;39.77;48.68
6028;BME280;3042;43.194;27.646;2022-09-16T11:22:28;100495.94;;;39.72;48.42
6028;BME280;3042;43.194;27.646;2022-09-16T11:25:34;100480.78;;;39.92;48.84
6028;BME280;3042;43.194;27.646;2022-09-16T11:28:35;100450.22;;;40.01;48.57
6028;BME280;3042;43.194;27.646;2022-09-16T11:31:19;100486.69;;;40.18;48.71
6028;BME280;3042;43.194;27.646;2022-09-16T11:34:01;100470.44;;;40.18;48.46
6028;BME280;3042;43.194;27.646;2022-09-16T11:36:54;100465.00;;;40.29;47.50
6028;BME280;3042;43.194;27.646;2022-09-16T11:39:47;100428.84;;;39.98;47.74
6028;BME280;3042;43.194;27.646;2022-09-16T11:42:31;100468.47;;;40.20;48.46
6028;BME280;3042;43.194;27.646;2022-09-16T11:45:21;100455.38;;;40.36;48.36
6028;BME280;3042;43.194;27.646;2022-09-16T11:48:04;100458.13;;;40.25;48.43
6028;BME280;3042;43.194;27.646;2022-09-16T11:50:48;100450.25;;;40.22;49.60
6028;BME280;3042;43.194;27.646;2022-09-16T11:53:44;100445.81;;;40.32;48.65
6028;BME280;3042;43.194;27.646;2022-09-16T11:56:35;100435.66;;;40.55;48.49
6028;BME280;3042;43.194;27.646;2022-09-16T11:59:14;100431.94;;;40.46;48.28
6028;BME280;3042;43.194;27.646;2022-09-16T12:01:52;100442.97;;;40.22;48.03
6028;BME280;3042;43.194;27.646;2022-09-16T12:04:37;100359.53;;;40.06;47.96
6028;BME280;3042;43.194;27.646;2022-09-16T12:07:10;100425.72;;;40.35;48.24
6028;BME280;3042;43.194;27.646;2022-09-16T12:09:49;100436.75;;;40.43;47.93
6028;BME280;3042;43.194;27.646;2022-09-16T12:12:31;100433.13;;;40.54;48.76
6028;BME280;3042;43.194;27.646;2022-09-16T12:15:16;100432.19;;;40.43;48.69
6028;BME280;3042;43.194;27.646;2022-09-16T12:17:54;100400.31;;;40.15;49.69
6028;BME280;3042;43.194;27.646;2022-09-16T12:20:31;100435.44;;;40.37;49.43
6028;BME280;3042;43.194;27.646;2022-09-16T12:23:07;100417.03;;;40.62;48.26
6028;BME280;3042;43.194;27.646;2022-09-16T12:25:50;100409.28;;;40.78;49.38
6028;BME280;3042;43.194;27.646;2022-09-16T12:28:30;100412.56;;;40.72;48.78
6028;BME280;3042;43.194;27.646;2022-09-16T12:31:10;100416.16;;;40.82;48.69
6028;BME280;3042;43.194;27.646;2022-09-16T12:33:46;100414.75;;;40.36;49.33
6028;BME280;3042;43.194;27.646;2022-09-16T12:36:21;100418.72;;;40.32;48.13
6028;BME280;3042;43.194;27.646;2022-09-16T12:38:50;100404.28;;;40.53;49.00
6028;BME280;3042;43.194;27.646;2022-09-16T12:41:39;100408.00;;;40.51;48.92
6028;BME280;3042;43.194;27.646;2022-09-16T12:44:39;100397.66;;;40.24;48.43
6028;BME280;3042;43.194;27.646;2022-09-16T12:47:31;100407.34;;;40.38;49.51
6028;BME280;3042;43.194;27.646;2022-09-16T12:50:23;100396.59;;;40.58;47.86
6028;BME280;3042;43.194;27.646;2022-09-16T12:53:12;100384.97;;;40.67;48.34
6028;BME280;3042;43.194;27.646;2022-09-16T12:55:53;100389.63;;;40.34;48.43
6028;BME280;3042;43.194;27.646;2022-09-16T12:58:43;100372.00;;;39.98;49.86
6028;BME280;3042;43.194;27.646;2022-09-16T13:01:19;100381.88;;;40.08;50.07
6028;BME280;3042;43.194;27.646;2022-09-16T13:03:51;100296.03;;;39.57;50.38
6028;BME280;3042;43.194;27.646;2022-09-16T13:06:22;100384.06;;;40.15;48.73
6028;BME280;3042;43.194;27.646;2022-09-16T13:08:51;100352.53;;;39.83;48.90
6028;BME280;3042;43.194;27.646;2022-09-16T13:11:25;100380.81;;;40.32;49.44
6028;BME280;3042;43.194;27.646;2022-09-16T13:13:58;100378.81;;;40.34;49.33
6028;BME280;3042;43.194;27.646;2022-09-16T13:16:30;100380.88;;;40.42;50.33
6028;BME280;3042;43.194;27.646;2022-09-16T13:19:26;100372.91;;;40.50;48.89
6028;BME280;3042;43.194;27.646;2022-09-16T13:22:12;100307.53;;;40.13;49.25
6028;BME280;3042;43.194;27.646;2022-09-16T13:24:47;100329.47;;;39.88;49.83
6028;BME280;3042;43.194;27.646;2022-09-16T13:27:30;100314.28;;;39.97;49.76
6028;BME280;3042;43.194;27.646;2022-09-16T13:30:28;100376.75;;;40.47;49.06
6028;BME280;3042;43.194;27.646;2022-09-16T13:33:02;100368.13;;;40.63;49.34
6028;BME280;3042;43.194;27.646;2022-09-16T13:35:42;100366.56;;;40.61;47.84